• Join FlightAware (Why Join?)
  • Login
  • US Flag 
05:37PM EST


 

Airport Tracker/Info


-or-


 

Live Flight TrackerFlight Track Log ✈ FLG4034 ✈ 21-Jul-2013 ✈ KDTW - KMHT

Flight Track Log - Related Links

Times and Time Zones

All times are in EDT time to prevent confusion due to time zone crossing. See the FLG4034 flight status page for this flight to view local times or setup timezone preferences in your user account.

Time Position Orientation Groundspeed Altitude Reporting Facility
EDT Latitude Longitude Course Direction KTS MPH feet Rate Location/Type
10:22AM 42.2314 -83.3314 94° East 154 177 1,200  Level Cleveland Center
10:23AM 42.2675 -83.3050 28° Northeast 203 234 2,400 1,680 Climbing Cleveland Center
10:24AM 42.3144 -83.2564 37° Northeast 239 275 4,400 2,040 Climbing Cleveland Center
10:25AM 42.3394 -83.1647 70° East 282 325 6,800 2,100 Climbing Cleveland Center
10:26AM 42.3223 -82.6943 82° East  Level FlightAware Approximate
10:26AM 42.3231 -83.0631 102° East 293 337 8,700  Level Cleveland Center
10:27AM 42.3469 -82.5289 71° East  Level FlightAware Approximate
10:27AM 42.3044 -82.9500 103° East 311 358 10,600  Level Cleveland Center
10:28AM 42.3648 -82.3671 94° East  Level FlightAware Approximate
10:28AM 42.3050 -82.8208 90° East 356 410 11,900  Level Cleveland Center
10:29AM 42.3283 -82.6867 77° East 356 410 13,600 1,500 Climbing Cleveland Center
10:30AM 42.3494 -82.5525 78° East 356 410 15,000 1,200 Climbing Cleveland Center
10:31AM 42.3644 -82.4069 82° East 374 430 16,100 1,080 Climbing Cleveland Center
10:32AM 42.3606 -82.2578 92° East 380 437 17,200 900 Climbing Cleveland Center
10:33AM 42.3542 -82.1031 93° East 399 459 18,000 900 Climbing Cleveland Center
10:34AM 42.3458 -81.9428 94° East 418 481 19,000 840 Climbing Cleveland Center
10:35AM 42.3394 -81.7797 93° East 424 488 19,700 720 Climbing Cleveland Center
10:36AM 42.3325 -81.6167 93° East 431 496 20,500 780 Climbing Cleveland Center
10:37AM 42.3256 -81.4508 93° East 439 505 21,300 720 Climbing Cleveland Center
10:38AM 42.3164 -81.2794 94° East 448 516 22,000 600 Climbing Cleveland Center
10:39AM 42.3069 -81.1081 94° East 453 521 22,600 540 Climbing Cleveland Center
10:40AM 42.2972 -80.9342 94° East 465 535 23,100 480 Climbing Cleveland Center
10:41AM 42.2892 -80.7769 94° East 465 535 23,600 480 Climbing Cleveland Center
10:42AM 42.2789 -80.6000 94° East 465 535 24,100 480 Climbing Cleveland Center
10:43AM 42.2706 -80.4233 94° East 465 535 24,600 480 Climbing Cleveland Center
10:44AM 42.2617 -80.2408 94° East 475 547 25,100 480 Climbing Cleveland Center
10:45AM 42.2506 -80.0586 95° East 480 552 25,600 480 Climbing Cleveland Center
10:46AM 42.2392 -79.8792 95° East 480 552 26,100 480 Climbing Cleveland Center
10:47AM 42.2275 -79.7000 95° East 480 552 26,600 420 Climbing Cleveland Center
10:48AM 42.2156 -79.5178 95° East 480 552 27,000 180 Climbing Cleveland Center
10:49AM 42.2033 -79.3358 95° East 480 552 27,000  Level Cleveland Center
10:50AM 42.1908 -79.1539 95° East 480 552 27,000  Level Cleveland Center
10:51AM 42.2072 -78.9714 83° East 480 552 27,000  Level Cleveland Center
10:52AM 42.2336 -78.7883 79° East 480 552 27,000  Level Cleveland Center
10:53AM 42.2556 -78.6056 81° East 485 558 27,000  Level Cleveland Center
10:54AM 42.2772 -78.4194 81° East 485 558 27,000  Level Cleveland Center
10:55AM 42.3008 -78.2389 80° East 485 558 27,000  Level Cleveland Center
10:56AM 42.3219 -78.0556 81° East 485 558 27,000  Level Cleveland Center
10:57AM 42.3447 -77.8664 81° East 485 558 27,000  Level Cleveland Center
10:58AM 42.3653 -77.6800 81° East 485 558 27,000  Level Cleveland Center
10:59AM 42.3914 -77.4764 80° East 485 558 27,000  Level Cleveland Center
11:01AM 42.4281 -77.1411 81° East 502 578 27,000  Level Boston Center
11:02AM 42.4483 -76.9514 82° East 502 578 27,000  Level Boston Center
11:03AM 42.4681 -76.7639 82° East 502 578 27,000  Level Boston Center
11:04AM 42.4897 -76.5739 81° East 502 578 27,000  Level Boston Center
11:05AM 42.5089 -76.3864 82° East 502 578 27,000  Level Boston Center
11:06AM 42.5272 -76.2156 82° East 502 578 27,000  Level Boston Center
11:07AM 42.5458 -76.0281 82° East 502 578 27,000  Level Boston Center
11:08AM 42.5642 -75.8372 83° East 502 578 27,000  Level Boston Center
11:09AM 42.5822 -75.6492 83° East 502 578 27,000  Level Boston Center
11:10AM 42.5997 -75.4667 83° East 497 572 27,000  Level Boston Center
11:11AM 42.6172 -75.2758 83° East 503 579 27,000  Level Boston Center
11:12AM 42.6361 -75.0931 82° East 503 579 27,000  Level Boston Center
11:13AM 42.6508 -74.9075 84° East 498 573 27,000  Level Boston Center
11:14AM 42.6697 -74.6992 83° East 498 573 27,000  Level Boston Center
11:15AM 42.6858 -74.5161 83° East 498 573 27,000 -300 Level Boston Center
11:16AM 42.7014 -74.3331 83° East 498 573 26,400 -840 Descending Boston Center
11:17AM 42.7189 -74.1442 83° East 498 573 25,400 -960 Descending Boston Center
11:18AM 42.7319 -73.9608 84° East 498 573 24,400 -900 Descending Boston Center
11:19AM 42.7514 -73.7408 83° East 493 567 23,500 -900 Descending Boston Center
11:20AM 42.7572 -73.5825 87° East 481 554 22,600 -960 Descending Boston Center
11:21AM 42.7631 -73.4044 87° East 481 554 21,600 -1,020 Descending Boston Center
11:22AM 42.7708 -73.2319 86° East 470 541 20,600 -1,080 Descending Boston Center
11:23AM 42.7739 -73.0625 89° East 453 521 19,500 -840 Descending Boston Center
11:24AM 42.7808 -72.8869 87° East 440 506 19,000 -660 Descending Boston Center
11:25AM 42.7836 -72.7286 89° East 424 488 18,200 -1,500 Descending Boston Center
11:26AM 42.7881 -72.5731 88° East 412 474 16,100 -2,100 Descending Boston Center
11:27AM 42.7922 -72.4175 88° East 406 467 14,100 -2,040 Descending Boston Center
11:28AM 42.7964 -72.2789 88° East 385 443 12,100 -1,920 Descending Boston Center
11:29AM 42.8003 -72.1628 87° East 352 405 10,300 -1,440 Descending Boston Center
11:30AM 42.7956 -72.0328 93° East 319 367 9,300 -1,200 Descending Boston Center
11:31AM 42.7911 -71.9281 93° East 305 351 8,000 -1,620 Descending Boston Center
11:32AM 42.7842 -71.8036 94° East 305 351 6,100 -1,500 Descending Boston Center
11:33AM 42.7817 -71.7131 92° East 281 323 5,100 -1,020 Descending Boston Center